Time;durP1;ratioP1;P1;durP2;ratioP2;P2;SDS_P1;SDS_P2;PMS_P1;PMS_P2;Temp;Humidity;BMP_temperature;BMP_pressure;BME280_temperature;BME280_humidity;BME280_pressure;Samples;Min_cycle;Max_cycle;Signal;HPM_P1;HPM_P2
2023/02/06 00:00:44;;;;;;;49.15;45.45;;;;;;;-5.21;100.00;102307.00;5074096;28;20049;-80
2023/02/06 00:05:59;;;;;;;46.33;42.65;;;;;;;-5.23;100.00;102316.59;5080032;27;20393;-80
2023/02/06 00:08:26;;;;;;;49.60;45.47;;;;;;;-4.93;100.00;102331.72;5069829;28;20502;-81
2023/02/06 00:10:54;;;;;;;50.92;47.03;;;;;;;-5.03;100.00;102333.88;5081164;28;20045;-81
2023/02/06 00:13:21;;;;;;;48.38;44.58;;;;;;;-5.19;100.00;102328.50;5077184;28;20056;-80
2023/02/06 00:15:48;;;;;;;48.83;45.10;;;;;;;-5.24;100.00;102330.44;5080630;28;20108;-80
2023/02/06 00:18:15;;;;;;;46.88;43.47;;;;;;;-5.02;100.00;102332.13;5082682;28;20070;-81
2023/02/06 00:20:41;;;;;;;45.92;42.40;;;;;;;-5.19;100.00;102328.50;5075940;28;20044;-81
2023/02/06 00:23:09;;;;;;;44.97;41.47;;;;;;;-4.94;100.00;102332.66;5070050;28;20102;-81
2023/02/06 00:25:36;;;;;;;47.33;43.53;;;;;;;-4.70;100.00;102331.56;5076129;28;20049;-81
2023/02/06 00:28:03;;;;;;;47.50;43.83;;;;;;;-4.88;100.00;102330.63;5083429;28;20117;-80
2023/02/06 00:30:30;;;;;;;49.83;45.97;;;;;;;-4.82;100.00;102333.88;5073401;28;20571;-81
2023/02/06 00:32:56;;;;;;;45.60;42.22;;;;;;;-5.09;100.00;102329.81;5073670;28;20048;-81
2023/02/06 00:35:23;;;;;;;49.78;45.97;;;;;;;-4.89;100.00;102323.78;5073355;28;20467;-81
2023/02/06 00:37:50;;;;;;;49.22;45.33;;;;;;;-5.08;100.00;102326.31;5079745;28;20105;-81
2023/02/06 00:40:19;;;;;;;50.75;46.85;;;;;;;-4.96;100.00;102324.97;5077319;28;20053;-81
2023/02/06 00:42:55;;;;;;;;;;;;;;;;;;;;;
2023/02/06 00:45:28;;;;;;;48.15;44.20;;;;;;;-4.70;100.00;102336.75;5075789;27;20391;-81
2023/02/06 00:47:54;;;;;;;50.40;46.10;;;;;;;-4.93;100.00;102339.50;5074799;28;20102;-81
2023/02/06 00:50:21;;;;;;;50.05;45.95;;;;;;;-5.06;100.00;102332.25;5079232;28;20044;-81
2023/02/06 00:52:48;;;;;;;56.70;52.08;;;;;;;-5.02;100.00;102330.41;5084727;28;20044;-81
2023/02/06 00:55:15;;;;;;;51.05;46.45;;;;;;;-5.07;100.00;102328.00;5082385;28;20044;-81
2023/02/06 00:57:41;;;;;;;53.72;49.30;;;;;;;-4.88;100.00;102317.66;5076688;28;20102;-81
2023/02/06 01:00:10;;;;;;;54.75;50.40;;;;;;;-4.88;100.00;102312.47;5074778;28;20041;-81
2023/02/06 01:02:38;;;;;;;56.13;51.65;;;;;;;-4.97;100.00;102317.22;5071999;28;20052;-81
2023/02/06 01:05:05;;;;;;;56.00;51.70;;;;;;;-4.99;100.00;102306.06;5075750;28;20105;-81
2023/02/06 01:07:32;;;;;;;51.28;47.38;;;;;;;-5.03;100.00;102310.56;5081078;28;20048;-81
2023/02/06 01:09:59;;;;;;;52.47;48.03;;;;;;;-4.97;100.00;102317.22;5080289;28;20106;-81
2023/02/06 01:12:25;;;;;;;51.72;47.45;;;;;;;-4.92;100.00;102310.94;5072962;28;20048;-81
2023/02/06 01:14:52;;;;;;;53.47;49.22;;;;;;;-4.94;100.00;102317.94;5072690;28;20475;-81
2023/02/06 01:17:19;;;;;;;55.72;51.20;;;;;;;-4.75;100.00;102318.00;5074954;28;20505;-81
2023/02/06 01:19:47;;;;;;;53.58;49.47;;;;;;;-4.67;100.00;102322.81;5063291;28;20049;-81
2023/02/06 01:22:13;;;;;;;52.30;48.30;;;;;;;-4.68;100.00;102321.16;5067387;28;20114;-80
2023/02/06 01:24:40;;;;;;;53.92;49.42;;;;;;;-4.84;100.00;102314.06;5074409;28;20550;-81
2023/02/06 01:27:07;;;;;;;52.05;47.80;;;;;;;-4.57;100.00;102315.47;5079042;28;20036;-81
2023/02/06 01:29:34;;;;;;;59.22;54.03;;;;;;;-4.38;100.00;102311.16;5081706;28;20467;-81
2023/02/06 01:32:00;;;;;;;54.40;49.97;;;;;;;-4.40;100.00;102308.59;5073722;28;20101;-81
2023/02/06 01:34:27;;;;;;;53.20;49.20;;;;;;;-4.59;100.00;102309.53;5071719;28;20102;-81
2023/02/06 01:36:55;;;;;;;51.78;47.88;;;;;;;-4.46;100.00;102308.06;5077744;28;20044;-81
2023/02/06 01:39:22;;;;;;;53.10;48.70;;;;;;;-4.73;100.00;102310.13;5073306;28;20052;-81
2023/02/06 01:41:49;;;;;;;56.40;52.00;;;;;;;-4.76;100.00;102308.50;5078573;28;20041;-80
2023/02/06 01:44:20;;;;;;;52.53;48.38;;;;;;;-4.78;100.00;102305.16;5077508;28;20158;-81
2023/02/06 01:46:50;;;;;;;56.67;52.38;;;;;;;-4.68;100.00;102309.03;5068860;28;20044;-81
2023/02/06 01:49:21;;;;;;;54.92;50.40;;;;;;;-4.78;100.00;102306.91;5069493;28;20110;-80
2023/02/06 01:51:49;;;;;;;53.65;49.28;;;;;;;-4.56;100.00;102299.84;5068394;28;20094;-80
2023/02/06 01:54:17;;;;;;;53.88;49.72;;;;;;;-4.63;100.00;102308.81;5073286;28;20044;-81
2023/02/06 01:56:49;;;;;;;52.67;48.40;;;;;;;-4.54;100.00;102305.78;5063619;28;20053;-81
2023/02/06 01:59:16;;;;;;;54.85;50.42;;;;;;;-4.63;100.00;102314.00;5051652;28;20061;-81
2023/02/06 02:01:43;;;;;;;56.28;51.85;;;;;;;-4.62;100.00;102323.47;5064141;28;20460;-80
2023/02/06 02:04:15;;;;;;;55.38;50.28;;;;;;;-4.68;100.00;102315.97;5058727;28;20048;-81
2023/02/06 02:06:42;;;;;;;51.67;47.77;;;;;;;-4.63;100.00;102332.16;5050971;28;20123;-81
2023/02/06 02:09:08;;;;;;;58.03;53.10;;;;;;;-4.43;100.00;102320.88;5058641;28;20075;-81
2023/02/06 02:11:40;;;;;;;54.25;50.03;;;;;;;-4.67;100.00;102315.06;5062697;28;20449;-81
2023/02/06 02:14:10;;;;;;;56.55;52.03;;;;;;;-4.63;100.00;102316.59;5056361;28;20045;-81
2023/02/06 02:16:48;;;;;;;59.67;55.20;;;;;;;-4.52;100.00;102329.09;5064675;28;20048;-81
2023/02/06 02:19:42;;;;;;;57.35;52.60;;;;;;;-4.59;100.00;102317.31;5064757;28;20098;-80
2023/02/06 02:22:39;;;;;;;55.45;51.25;;;;;;;-4.56;100.00;102320.59;5061009;28;20583;-81
2023/02/06 02:25:35;;;;;;;57.22;52.28;;;;;;;-4.42;100.00;102325.16;5054514;28;20041;-81
2023/02/06 02:28:37;;;;;;;60.67;54.97;;;;;;;-4.52;100.00;102322.13;5057092;28;20075;-80
2023/02/06 02:31:21;;;;;;;71.17;64.57;;;;;;;-4.37;100.00;102320.59;5029539;28;20107;-81
2023/02/06 02:34:20;;;;;;;62.40;57.22;;;;;;;-4.34;100.00;102330.84;5045643;28;20300;-80
2023/02/06 02:36:54;;;;;;;67.00;61.03;;;;;;;-4.26;100.00;102333.94;5059464;28;20548;-81
2023/02/06 02:39:29;;;;;;;60.40;55.42;;;;;;;-4.32;100.00;102330.78;5059911;28;20053;-81
2023/02/06 02:42:03;;;;;;;62.72;57.70;;;;;;;-4.47;100.00;102320.19;5052469;28;20049;-80
2023/02/06 02:44:38;;;;;;;64.55;59.78;;;;;;;-4.47;100.00;102332.31;5053030;28;20115;-81
2023/02/06 02:47:10;;;;;;;54.42;50.00;;;;;;;-4.38;100.00;102326.72;5057279;28;20037;-81
2023/02/06 02:49:38;;;;;;;57.70;53.17;;;;;;;-4.34;100.00;102337.78;5060040;28;20045;-81
2023/02/06 02:52:06;;;;;;;57.00;52.50;;;;;;;-4.25;100.00;102329.59;5063115;28;20558;-81
2023/02/06 02:54:33;;;;;;;63.10;57.65;;;;;;;-4.10;100.00;102333.22;5069918;28;20044;-81
2023/02/06 02:57:05;;;;;;;69.10;62.90;;;;;;;-4.14;100.00;102329.94;5063418;28;20102;-81
2023/02/06 02:59:36;;;;;;;55.55;51.72;;;;;;;-4.21;100.00;102331.13;5051054;28;20048;-81
2023/02/06 03:02:18;;;;;;;62.78;57.53;;;;;;;-4.22;100.00;102324.25;5051795;22;20107;-82
2023/02/06 03:04:57;;;;;;;60.42;55.63;;;;;;;-4.27;100.00;102326.22;5014670;28;20057;-82
2023/02/06 03:07:47;;;;;;;57.03;52.53;;;;;;;-4.32;100.00;102329.03;5011835;28;20054;-82
2023/02/06 03:10:30;;;;;;;55.67;51.38;;;;;;;-4.38;100.00;102324.97;5015010;28;20078;-83
2023/02/06 03:13:15;;;;;;;56.67;52.42;;;;;;;-4.32;100.00;102328.19;5011260;28;20050;-82
2023/02/06 03:15:48;;;;;;;54.42;50.17;;;;;;;-4.14;100.00;102324.75;5014934;28;20058;-82
2023/02/06 03:18:20;;;;;;;60.60;56.10;;;;;;;-4.15;100.00;102320.44;5027607;28;20053;-82
2023/02/06 03:20:52;;;;;;;59.75;55.30;;;;;;;-4.20;100.00;102328.47;5031892;28;20045;-82
2023/02/06 03:23:31;;;;;;;63.33;57.92;;;;;;;-4.20;100.00;102328.47;5034172;28;20045;-83
2023/02/06 03:26:06;;;;;;;57.13;52.63;;;;;;;-4.13;100.00;102323.81;4994666;28;20124;-82
2023/02/06 03:28:42;;;;;;;60.60;56.00;;;;;;;-4.13;100.00;102328.19;4999423;28;20038;-82
2023/02/06 03:31:20;;;;;;;57.38;52.92;;;;;;;-4.16;100.00;102329.16;5014878;28;20548;-82
2023/02/06 03:33:59;;;;;;;59.63;55.35;;;;;;;-4.05;100.00;102331.28;5025460;28;20049;-83
2023/02/06 03:36:33;;;;;;;58.15;53.38;;;;;;;-4.15;100.00;102323.03;5005512;28;20046;-82
2023/02/06 03:39:12;;;;;;;53.35;49.22;;;;;;;-3.84;100.00;102337.19;5014102;28;20061;-83
2023/02/06 03:41:53;;;;;;;52.70;48.42;;;;;;;-4.02;100.00;102336.31;5014304;28;20104;-82
2023/02/06 03:44:34;;;;;;;53.65;49.53;;;;;;;-4.00;100.00;102344.84;5013779;28;20502;-82
2023/02/06 03:47:10;;;;;;;56.05;51.40;;;;;;;-4.11;100.00;102336.72;5015354;28;20555;-82
2023/02/06 03:49:43;;;;;;;52.47;48.30;;;;;;;-4.13;100.00;102346.34;5015110;28;20065;-82
2023/02/06 03:52:23;;;;;;;52.72;48.53;;;;;;;-3.89;100.00;102349.56;5014076;28;20045;-82
2023/02/06 03:55:01;;;;;;;57.35;52.47;;;;;;;-3.90;100.00;102351.31;5014312;28;20050;-82
2023/02/06 03:57:44;;;;;;;57.33;53.00;;;;;;;-3.99;100.00;102343.97;5014047;28;20078;-83
2023/02/06 04:00:12;;;;;;;53.00;49.00;;;;;;;-3.98;100.00;102333.50;5013900;28;20050;-82
2023/02/06 04:02:58;;;;;;;54.90;50.38;;;;;;;-3.80;100.00;102355.16;5013521;28;20474;-83
2023/02/06 04:05:31;;;;;;;50.45;46.38;;;;;;;-3.85;100.00;102340.69;5020355;28;20060;-82
2023/02/06 04:08:02;;;;;;;54.20;50.20;;;;;;;-3.73;100.00;102355.69;5013990;28;20050;-83
2023/02/06 04:10:39;;;;;;;56.80;52.60;;;;;;;-3.74;100.00;102348.81;5013852;28;20107;-82
2023/02/06 04:13:16;;;;;;;60.08;55.38;;;;;;;-3.67;100.00;102354.56;5013975;28;20417;-81
2023/02/06 04:15:56;;;;;;;55.67;51.90;;;;;;;-3.81;100.00;102350.00;5025482;28;20049;-84
2023/02/06 04:18:34;;;;;;;60.65;56.17;;;;;;;-3.93;100.00;102352.28;5033314;28;20045;-82
2023/02/06 04:21:14;;;;;;;52.75;49.17;;;;;;;-3.92;100.00;102346.19;5028944;28;20044;-83
2023/02/06 04:23:51;;;;;;;54.10;50.30;;;;;;;-3.65;100.00;102350.97;5013325;28;20049;-82
2023/02/06 04:26:31;;;;;;;55.72;51.35;;;;;;;-3.93;100.00;102352.28;4995750;28;20046;-83
2023/02/06 04:29:11;;;;;;;58.63;53.88;;;;;;;-4.02;100.00;102351.91;5013732;28;20069;-83
2023/02/06 04:31:48;;;;;;;53.95;49.78;;;;;;;-3.95;100.00;102355.88;5020849;28;20049;-83
2023/02/06 04:34:23;;;;;;;56.17;52.08;;;;;;;-3.91;100.00;102354.81;5017497;28;20069;-83
2023/02/06 04:36:58;;;;;;;52.28;48.42;;;;;;;-3.95;100.00;102350.69;5013492;28;20058;-83
2023/02/06 04:39:40;;;;;;;52.50;48.90;;;;;;;-3.97;100.00;102355.94;5013788;28;20050;-83
2023/02/06 04:42:16;;;;;;;55.88;51.38;;;;;;;-3.95;100.00;102348.91;5013630;28;20500;-82
2023/02/06 04:44:49;;;;;;;57.50;52.53;;;;;;;-3.92;100.00;102366.94;5018415;28;20053;-82
2023/02/06 04:47:33;;;;;;;51.85;47.47;;;;;;;-3.96;100.00;102362.81;5033422;28;20060;-82
2023/02/06 04:50:10;;;;;;;57.35;52.53;;;;;;;-4.00;100.00;102363.03;5027321;28;20046;-83
2023/02/06 04:52:46;;;;;;;58.20;53.60;;;;;;;-4.00;100.00;102368.22;5013167;28;20132;-82
2023/02/06 04:55:26;;;;;;;62.40;56.90;;;;;;;-4.05;100.00;102365.00;5013236;28;20445;-82
2023/02/06 04:58:16;;;;;;;57.70;53.22;;;;;;;-3.93;100.00;102367.88;5009330;28;20149;-82
2023/02/06 05:00:43;;;;;;;54.30;50.05;;;;;;;-4.01;100.00;102366.53;5007381;28;20125;-82
2023/02/06 05:03:22;;;;;;;57.45;53.33;;;;;;;-4.00;100.00;102368.22;5013165;28;20057;-82
2023/02/06 05:07:56;;;;;;;56.88;52.58;;;;;;;-4.00;100.00;102369.06;5087936;27;20385;-80
2023/02/06 05:10:22;;;;;;;55.85;51.67;;;;;;;-4.05;100.00;102378.00;5045562;27;20102;-80
2023/02/06 05:12:50;;;;;;;55.67;51.60;;;;;;;-3.95;100.00;102376.63;5039672;28;20480;-81
2023/02/06 05:15:17;;;;;;;52.95;49.20;;;;;;;-3.96;100.00;102377.56;5042987;28;20045;-80
2023/02/06 05:17:44;;;;;;;52.72;48.80;;;;;;;-3.85;100.00;102379.63;5045039;28;20498;-80
2023/02/06 05:20:11;;;;;;;52.60;48.35;;;;;;;-3.93;100.00;102383.44;5045580;28;20099;-80
2023/02/06 05:22:38;;;;;;;52.60;48.20;;;;;;;-3.74;100.00;102385.19;5046397;28;20053;-81
2023/02/06 05:25:07;;;;;;;52.25;48.35;;;;;;;-3.80;100.00;102394.09;5043099;28;20469;-81
2023/02/06 05:27:33;;;;;;;53.25;49.03;;;;;;;-3.80;100.00;102394.09;5043064;28;20489;-80
2023/02/06 05:30:00;;;;;;;53.95;49.30;;;;;;;-3.71;100.00;102396.25;5042788;28;20103;-80
2023/02/06 05:32:27;;;;;;;52.00;47.85;;;;;;;-3.76;100.00;102399.97;5045913;28;20041;-80
2023/02/06 05:34:53;;;;;;;52.20;47.95;;;;;;;-3.70;100.00;102399.69;5044908;28;20050;-80
2023/02/06 05:37:20;;;;;;;51.13;47.00;;;;;;;-3.72;100.00;102402.38;5044202;28;20477;-80
2023/02/06 05:39:47;;;;;;;49.13;45.15;;;;;;;-3.56;100.00;102407.69;5045722;28;20045;-80
2023/02/06 05:42:15;;;;;;;48.85;45.15;;;;;;;-3.80;100.00;102401.06;5042385;28;20510;-80
2023/02/06 05:44:41;;;;;;;48.90;44.92;;;;;;;-3.80;100.00;102399.28;5045966;28;20050;-80
2023/02/06 05:47:08;;;;;;;50.63;46.72;;;;;;;-3.51;100.00;102402.25;5030602;28;20054;-80
2023/02/06 05:53:29;;;;;;;101.10;63.72;;;;;;;-3.46;100.00;102395.09;5090323;27;20384;-82
2023/02/06 05:56:04;;;;;;;51.58;47.13;;;;;;;-3.52;100.00;102405.78;5070533;28;20053;-82
2023/02/06 05:58:35;;;;;;;60.53;54.22;;;;;;;-3.34;100.00;102406.66;5070209;28;20409;-82
2023/02/06 06:01:13;;;;;;;55.53;50.72;;;;;;;-3.34;100.00;102410.09;5070023;28;20102;-82
2023/02/06 06:06:29;;;;;;;55.88;50.83;;;;;;;-3.25;100.00;102411.41;5058613;28;20383;-80
2023/02/06 06:08:56;;;;;;;64.43;54.92;;;;;;;-3.25;100.00;102414.84;5067751;28;20403;-80
2023/02/06 06:11:23;;;;;;;62.95;56.55;;;;;;;-3.12;100.00;102407.28;5063716;28;20083;-80
2023/02/06 06:13:49;;;;;;;58.38;52.92;;;;;;;-3.22;100.00;102406.88;5058387;28;20048;-81
2023/02/06 06:16:16;;;;;;;52.45;48.28;;;;;;;-3.35;100.00;102405.81;5062830;28;20457;-80
2023/02/06 06:18:43;;;;;;;53.40;49.17;;;;;;;-3.40;100.00;102410.38;5059786;28;20048;-82
2023/02/06 06:21:09;;;;;;;53.63;49.10;;;;;;;-3.30;100.00;102416.84;4006578;27;10000713;-80
2023/02/06 06:23:38;;;;;;;57.53;52.78;;;;;;;-3.26;100.00;102417.53;5051664;28;20323;-80
2023/02/06 06:26:05;;;;;;;54.05;50.17;;;;;;;-3.17;100.00;102416.22;5046910;28;20118;-81
2023/02/06 06:28:33;;;;;;;51.55;48.03;;;;;;;-3.38;100.00;102411.16;5053749;28;20045;-80
2023/02/06 06:31:01;;;;;;;50.38;47.00;;;;;;;-3.28;100.00;102427.13;5061236;28;20521;-80
2023/02/06 06:33:28;;;;;;;50.97;47.22;;;;;;;-3.33;100.00;102427.38;5056702;28;21686;-80
2023/02/06 06:35:55;;;;;;;52.25;48.33;;;;;;;-3.48;100.00;102423.75;5056369;28;20484;-81
2023/02/06 06:38:22;;;;;;;49.58;46.33;;;;;;;-3.35;100.00;102433.56;5056461;28;20087;-81
2023/02/06 06:40:50;;;;;;;47.00;43.92;;;;;;;-3.21;100.00;102436.31;5056000;28;20494;-81
2023/02/06 06:43:17;;;;;;;50.80;46.95;;;;;;;-3.51;100.00;102436.03;5055233;28;20053;-81
2023/02/06 06:45:43;;;;;;;54.60;50.15;;;;;;;-3.50;100.00;102442.91;5051274;28;20497;-80
2023/02/06 06:48:10;;;;;;;49.65;46.20;;;;;;;-3.64;100.00;102455.72;5061778;28;20053;-80
2023/02/06 06:50:37;;;;;;;49.33;46.03;;;;;;;-3.39;100.00;102445.84;5058144;28;20049;-80
2023/02/06 06:53:04;;;;;;;48.58;45.08;;;;;;;-3.69;100.00;102454.19;5059658;28;20103;-81
2023/02/06 06:55:30;;;;;;;55.13;50.42;;;;;;;-3.70;100.00;102462.84;5056409;28;20048;-80
2023/02/06 06:57:58;;;;;;;54.38;49.88;;;;;;;-3.69;100.00;102463.72;5058163;28;20482;-80
2023/02/06 07:00:25;;;;;;;50.08;46.35;;;;;;;-3.81;100.00;102453.88;5054969;28;20114;-81
2023/02/06 07:02:52;;;;;;;51.85;47.80;;;;;;;-3.74;100.00;102453.53;5047479;28;20103;-80
2023/02/06 07:05:19;;;;;;;49.28;45.75;;;;;;;-3.76;100.00;102463.16;5050494;28;20057;-80
2023/02/06 07:07:46;;;;;;;51.60;47.67;;;;;;;-3.63;100.00;102459.97;5055145;28;20094;-80
2023/02/06 07:10:13;;;;;;;51.20;47.30;;;;;;;-3.72;100.00;102462.13;5057839;28;20536;-80
2023/02/06 07:12:40;;;;;;;53.03;48.72;;;;;;;-3.62;100.00;102465.13;5058684;28;20053;-80
2023/02/06 07:15:09;;;;;;;52.40;48.20;;;;;;;-3.63;100.00;102470.38;5057161;28;20473;-80
2023/02/06 07:17:36;;;;;;;48.88;45.47;;;;;;;-3.47;100.00;102467.00;5043496;28;20556;-80
2023/02/06 07:20:03;;;;;;;51.05;47.35;;;;;;;-3.50;100.00;102472.34;5043535;28;20047;-81
2023/02/06 07:22:29;;;;;;;49.67;46.10;;;;;;;-3.37;100.00;102477.78;5037207;28;20049;-80
2023/02/06 07:24:56;;;;;;;49.47;45.70;;;;;;;-3.53;100.00;102469.03;5041283;28;20115;-81
2023/02/06 07:27:23;;;;;;;53.00;48.72;;;;;;;-3.28;100.00;102472.16;5039480;28;20115;-80
2023/02/06 07:29:50;;;;;;;51.15;47.28;;;;;;;-3.37;100.00;102482.16;5038753;28;20049;-80
2023/02/06 07:32:18;;;;;;;53.67;49.63;;;;;;;-3.34;100.00;102482.00;5042664;28;20057;-80
2023/02/06 07:34:44;;;;;;;50.08;46.28;;;;;;;-3.29;100.00;102480.03;5045332;28;20052;-80
2023/02/06 07:37:11;;;;;;;54.38;50.00;;;;;;;-3.14;100.00;102483.66;5046019;28;20119;-80
2023/02/06 07:39:38;;;;;;;54.53;50.17;;;;;;;-3.23;100.00;102472.78;5041864;28;20136;-80
2023/02/06 07:42:05;;;;;;;52.80;48.72;;;;;;;-3.00;100.00;102483.81;5038109;28;20110;-80
2023/02/06 07:44:32;;;;;;;54.00;49.67;;;;;;;-2.97;100.00;102472.44;5041364;28;20049;-80
2023/02/06 07:46:58;;;;;;;51.60;47.53;;;;;;;-2.97;100.00;102488.88;5038836;28;20206;-80
2023/02/06 07:49:27;;;;;;;53.83;49.45;;;;;;;-3.11;100.00;102486.13;5049357;28;20115;-80
2023/02/06 07:51:53;;;;;;;52.33;48.05;;;;;;;-3.09;100.00;102498.09;5046094;28;20041;-80
2023/02/06 07:54:20;;;;;;;53.88;49.65;;;;;;;-2.98;100.00;102501.97;5048887;28;20064;-80
2023/02/06 07:56:47;;;;;;;55.88;51.38;;;;;;;-3.13;100.00;102486.19;5048264;28;20048;-81
2023/02/06 07:59:14;;;;;;;54.55;50.10;;;;;;;-3.09;100.00;102497.28;5049383;28;20053;-80
2023/02/06 08:01:40;;;;;;;51.63;47.55;;;;;;;-3.04;100.00;102495.28;5048217;28;20040;-81
2023/02/06 08:04:07;;;;;;;52.72;48.42;;;;;;;-2.87;100.00;102504.91;5047919;28;20052;-81
2023/02/06 08:06:35;;;;;;;56.10;51.42;;;;;;;-2.85;100.00;102500.44;5049211;28;20488;-80
2023/02/06 08:09:04;;;;;;;53.40;49.13;;;;;;;-2.65;100.00;102494.25;5048926;28;20048;-80
2023/02/06 08:11:31;;;;;;;50.17;46.05;;;;;;;-2.72;100.00;102508.47;5050196;28;20386;-80
2023/02/06 08:16:38;;;;;;;55.17;50.65;;;;;;;-2.67;100.00;102506.50;5037411;27;20776;-80
2023/02/06 08:19:05;;;;;;;55.38;50.72;;;;;;;-2.73;100.00;102502.44;5009129;28;20049;-81
2023/02/06 08:21:33;;;;;;;51.40;47.03;;;;;;;-2.74;100.00;102515.53;5013523;28;20099;-80
2023/02/06 08:24:00;;;;;;;51.83;47.58;;;;;;;-2.47;100.00;102514.16;5015086;28;20558;-80
2023/02/06 08:26:29;;;;;;;50.30;46.45;;;;;;;-2.60;100.00;102513.94;5029065;28;20119;-80
2023/02/06 08:28:57;;;;;;;53.33;48.88;;;;;;;-2.53;100.00;102517.06;5028564;28;20503;-80
2023/02/06 08:31:26;;;;;;;52.90;48.67;;;;;;;-2.49;100.00;102509.94;5029207;28;20053;-80
2023/02/06 08:33:54;;;;;;;51.45;47.50;;;;;;;-2.69;100.00;102521.31;5027621;28;20495;-80
2023/02/06 08:36:22;;;;;;;51.03;47.13;;;;;;;-2.73;100.00;102519.81;5026877;28;20041;-80
2023/02/06 08:38:50;;;;;;;53.20;48.90;;;;;;;-2.78;100.00;102504.44;5021607;28;20054;-80
2023/02/06 08:41:19;;;;;;;54.17;49.63;;;;;;;-2.84;100.00;102525.53;5028159;28;20057;-80
2023/02/06 08:43:46;;;;;;;53.35;48.80;;;;;;;-2.42;100.00;102534.72;5028412;28;20050;-80
2023/02/06 08:46:13;;;;;;;53.78;49.42;;;;;;;-2.83;100.00;102540.22;5018081;28;20046;-80
2023/02/06 08:48:40;;;;;;;62.05;56.85;;;;;;;-2.64;100.00;102542.75;5027513;28;20111;-80
2023/02/06 08:51:10;;;;;;;54.10;49.42;;;;;;;-2.70;100.00;102520.50;5022872;28;20519;-81
2023/02/06 08:53:37;;;;;;;52.85;48.72;;;;;;;-2.33;100.00;102535.13;5027931;28;20108;-80
2023/02/06 08:56:06;;;;;;;53.10;48.95;;;;;;;-2.65;100.00;102546.28;5027864;28;20054;-80
2023/02/06 08:58:33;;;;;;;51.15;47.13;;;;;;;-2.56;100.00;102545.84;5014319;28;20054;-80
2023/02/06 09:01:16;;;;;;;;;;;;;;;;;;;;;
2023/02/06 09:03:47;;;;;;;54.25;49.42;;;;;;;-2.44;100.00;102553.03;5074715;27;20405;-80
2023/02/06 09:06:14;;;;;;;53.38;48.97;;;;;;;-2.53;100.00;102551.72;5077065;28;20053;-81
2023/02/06 09:08:41;;;;;;;50.80;46.78;;;;;;;-2.60;100.00;102544.31;5070860;28;20048;-81
2023/02/06 09:11:09;;;;;;;53.38;48.75;;;;;;;-2.57;100.00;102554.56;5074297;28;20090;-80
2023/02/06 09:13:37;;;;;;;51.97;47.95;;;;;;;-2.51;100.00;102556.00;5072908;28;20052;-81
2023/02/06 09:16:04;;;;;;;54.22;49.78;;;;;;;-2.49;100.00;102546.38;5073637;28;20425;-80
2023/02/06 09:18:31;;;;;;;52.97;48.80;;;;;;;-2.61;100.00;102548.66;5076911;28;20053;-80
2023/02/06 09:21:10;;;;;;;52.65;48.40;;;;;;;-2.36;100.00;102542.22;5072743;28;20053;-80
2023/02/06 09:23:38;;;;;;;53.45;49.13;;;;;;;-2.26;100.00;102550.44;5087500;28;20418;-80
2023/02/06 09:26:05;;;;;;;56.72;52.08;;;;;;;-2.48;100.00;102543.72;5078373;28;20052;-80
2023/02/06 09:28:32;;;;;;;50.97;47.28;;;;;;;0.28;100.00;102553.63;5074201;28;20044;-80
2023/02/06 09:30:59;;;;;;;55.28;50.92;;;;;;;0.00;100.00;102550.06;5078078;28;20048;-81
2023/02/06 09:33:26;;;;;;;51.95;48.20;;;;;;;-1.96;100.00;102553.22;5074925;28;20051;-81
2023/02/06 09:36:02;;;;;;;52.92;49.17;;;;;;;-2.27;100.00;102543.53;5081540;28;20475;-80
2023/02/06 09:38:30;;;;;;;52.40;48.55;;;;;;;-2.31;100.00;102545.44;5069073;28;20098;-80
2023/02/06 09:41:01;;;;;;;52.55;48.50;;;;;;;-2.20;100.00;102537.94;5071158;28;20098;-80
2023/02/06 09:43:29;;;;;;;52.47;48.42;;;;;;;-2.04;100.00;102545.78;5077568;28;20052;-81
2023/02/06 09:46:00;;;;;;;55.47;50.95;;;;;;;-2.13;100.00;102531.50;5082830;28;20048;-80
2023/02/06 09:48:30;;;;;;;54.65;50.30;;;;;;;-2.13;100.00;102536.69;5074259;28;20048;-81
2023/02/06 09:51:04;;;;;;;55.30;50.20;;;;;;;-2.22;100.00;102528.53;5076416;28;20048;-80
2023/02/06 09:53:42;;;;;;;52.63;48.28;;;;;;;-2.17;100.00;102539.56;5063762;28;20041;-80
2023/02/06 09:56:17;;;;;;;57.28;51.92;;;;;;;-2.19;100.00;102546.59;5076834;28;20048;-80
2023/02/06 09:58:51;;;;;;;49.95;45.72;;;;;;;-2.17;100.00;102539.56;5076902;28;20059;-81
2023/02/06 10:01:22;;;;;;;51.17;47.28;;;;;;;-2.33;100.00;102549.88;5074014;28;20045;-80
2023/02/06 10:04:11;;;;;;;56.17;51.37;;;;;;;-2.18;100.00;102569.97;5076809;28;20052;-81
2023/02/06 10:06:47;;;;;;;54.03;49.58;;;;;;;-2.23;100.00;102563.28;5068182;28;20525;-80
2023/02/06 10:12:09;;;;;;;54.47;49.72;;;;;;;-2.08;100.00;102562.50;5122148;27;20405;-80
2023/02/06 10:14:41;;;;;;;53.38;48.90;;;;;;;-2.34;100.00;102553.41;5106772;28;20101;-80
2023/02/06 10:17:16;;;;;;;60.58;55.20;;;;;;;-1.81;100.00;102562.84;5121732;28;20096;-79
2023/02/06 10:19:48;;;;;;;59.25;53.95;;;;;;;-1.89;100.00;102555.41;5108715;28;20139;-80
2023/02/06 10:22:19;;;;;;;73.78;65.72;;;;;;;-1.69;100.00;102550.94;5126526;28;20428;-80
2023/02/06 10:24:53;;;;;;;55.53;50.83;;;;;;;-1.93;100.00;102553.06;5123223;28;20050;-80
2023/02/06 10:27:21;;;;;;;88.43;65.90;;;;;;;-1.46;100.00;102552.28;5119972;28;20108;-80
2023/02/06 10:29:48;;;;;;;62.80;57.08;;;;;;;-1.36;100.00;102539.59;5122748;28;20051;-80
2023/02/06 10:32:26;;;;;;;55.72;51.38;;;;;;;-1.27;100.00;102542.56;5106405;28;20525;-80
2023/02/06 10:35:13;;;;;;;53.38;49.08;;;;;;;-1.02;100.00;102530.78;5116643;28;20058;-80
2023/02/06 10:38:03;;;;;;;53.40;49.22;;;;;;;-1.05;100.00;102537.00;5110766;28;20470;-80
2023/02/06 10:40:40;;;;;;;71.80;60.67;;;;;;;-0.79;100.00;102543.34;5118664;28;20130;-81
2023/02/06 10:43:17;;;;;;;55.58;50.85;;;;;;;-0.81;100.00;102549.59;5115259;28;20055;-80
2023/02/06 10:45:51;;;;;;;52.53;48.10;;;;;;;-1.01;100.00;102538.50;5123120;28;20047;-80
2023/02/06 10:48:28;;;;;;;52.83;48.55;;;;;;;-1.13;100.00;102533.97;5115401;28;20105;-80
2023/02/06 10:50:58;;;;;;;54.38;49.65;;;;;;;-1.08;100.00;102526.75;5110994;28;20058;-80
2023/02/06 10:53:30;;;;;;;53.13;48.67;;;;;;;-1.01;100.00;102520.25;5091723;28;20102;-81
2023/02/06 10:56:01;;;;;;;54.00;49.88;;;;;;;-0.95;100.00;102527.72;5120389;28;20121;-80
2023/02/06 10:58:35;;;;;;;54.80;49.95;;;;;;;-0.95;100.00;102525.09;5115041;28;20097;-80
2023/02/06 11:01:04;;;;;;;54.42;49.63;;;;;;;-1.05;100.00;102512.69;5115579;28;20040;-80
2023/02/06 11:03:33;;;;;;;52.92;48.88;;;;;;;-0.91;100.00;102528.38;5108920;28;20048;-80
2023/02/06 11:06:02;;;;;;;51.80;47.75;;;;;;;-1.16;100.00;102534.97;5109399;28;20059;-80
2023/02/06 11:08:33;;;;;;;54.78;50.45;;;;;;;-1.36;100.00;102537.84;5088523;28;20068;-80
2023/02/06 11:11:17;;;;;;;54.80;49.97;;;;;;;-1.56;100.00;102538.94;5098098;28;20424;-80
2023/02/06 11:13:48;;;;;;;54.55;50.15;;;;;;;-1.57;100.00;102531.19;5104001;28;20055;-80
2023/02/06 11:16:20;;;;;;;53.85;49.45;;;;;;;-1.54;100.00;102529.28;5107241;28;20052;-80
2023/02/06 11:18:49;;;;;;;;;;;;;;;-1.48;100.00;102528.94;5109249;28;20446;-80
2023/02/06 11:21:46;;;;;;;54.17;49.47;;;;;;;-1.15;100.00;102527.97;5104263;28;19920;-80
2023/02/06 11:24:15;;;;;;;56.75;52.15;;;;;;;-1.06;100.00;102524.91;5094317;28;20071;-80
2023/02/06 11:26:43;;;;;;;54.10;50.05;;;;;;;-0.99;100.00;102528.81;5093878;28;20052;-81
2023/02/06 11:29:18;;;;;;;53.22;49.42;;;;;;;-0.75;100.00;102521.38;5095013;28;20059;-80
2023/02/06 11:31:48;;;;;;;57.33;52.72;;;;;;;-0.59;100.00;102517.88;5094716;28;20048;-80
2023/02/06 11:34:25;;;;;;;56.90;52.20;;;;;;;-0.43;100.00;102512.59;5085488;28;20067;-80
2023/02/06 11:36:54;;;;;;;54.85;50.65;;;;;;;-0.58;100.00;102514.31;5084576;28;20562;-80
2023/02/06 11:39:23;;;;;;;54.22;50.03;;;;;;;-0.75;100.00;102517.94;5092030;28;20048;-80